Time;durP1;ratioP1;P1;durP2;ratioP2;P2;SDS_P1;SDS_P2;PMS_P1;PMS_P2;Temp;Humidity;BMP_temperature;BMP_pressure;BME280_temperature;BME280_humidity;BME280_pressure;Samples;Min_cycle;Max_cycle;Signal;HPM_P1;HPM_P2
2021/09/01 00:03:04;;;;;;;6.65;6.03;;;;;;;16.29;69.58;101021.25;10368524;28;20123;-57
2021/09/01 00:08:09;;;;;;;8.25;6.40;;;;;;;16.45;69.67;101058.25;10282517;28;20068;-56
2021/09/01 00:13:23;;;;;;;7.18;6.15;;;;;;;16.36;69.41;101046.56;10267936;28;20346;-55
2021/09/01 00:18:31;;;;;;;6.95;6.25;;;;;;;16.39;69.83;101061.53;10245993;28;20485;-55
2021/09/01 00:23:38;;;;;;;6.97;6.28;;;;;;;16.36;69.78;101056.44;10318040;28;20072;-56
2021/09/01 00:28:39;;;;;;;7.45;5.75;;;;;;;16.32;69.79;101052.31;10375627;28;20487;-54
2021/09/01 00:33:41;;;;;;;7.65;6.10;;;;;;;16.29;69.77;101041.88;10358046;28;20054;-54
2021/09/01 00:38:44;;;;;;;7.05;6.15;;;;;;;16.31;70.12;101047.97;10360218;28;20045;-54
2021/09/01 00:43:46;;;;;;;7.22;6.53;;;;;;;16.26;69.94;101038.50;10365174;28;20053;-56
2021/09/01 00:48:48;;;;;;;6.82;6.07;;;;;;;16.23;70.17;101041.47;10363632;28;20132;-55
2021/09/01 00:53:50;;;;;;;6.95;6.25;;;;;;;16.15;70.05;101035.91;10359331;28;20115;-56
2021/09/01 00:58:52;;;;;;;9.55;7.00;;;;;;;16.17;70.15;101055.44;10375893;28;20111;-55
2021/09/01 01:03:56;;;;;;;8.05;6.85;;;;;;;16.10;70.32;101037.34;10364982;28;20057;-55
2021/09/01 01:08:58;;;;;;;7.85;6.43;;;;;;;16.08;70.83;101056.28;10366033;28;20065;-55
2021/09/01 01:13:59;;;;;;;7.28;6.50;;;;;;;16.04;70.71;101062.94;10355861;28;20333;-55
2021/09/01 01:19:00;;;;;;;7.28;6.32;;;;;;;15.97;70.86;101059.09;10366813;28;20166;-55
2021/09/01 01:24:02;;;;;;;7.38;6.68;;;;;;;15.93;70.88;101068.41;10366805;28;20136;-55
2021/09/01 01:29:08;;;;;;;7.32;6.43;;;;;;;15.88;71.16;101074.19;10364624;28;20125;-54
2021/09/01 01:34:14;;;;;;;8.43;7.18;;;;;;;15.84;71.67;101079.00;10358770;28;20041;-55
2021/09/01 01:39:15;;;;;;;8.68;7.88;;;;;;;15.59;71.75;101049.94;10341885;28;20530;-55
2021/09/01 01:44:17;;;;;;;13.75;7.82;;;;;;;15.72;71.85;101094.34;10347735;28;20191;-54
2021/09/01 01:49:18;;;;;;;10.55;7.90;;;;;;;15.62;72.48;101073.81;10333893;28;20077;-56
2021/09/01 01:54:20;;;;;;;8.10;7.25;;;;;;;15.67;72.46;101098.41;10362382;28;20123;-55
2021/09/01 01:59:21;;;;;;;17.02;7.18;;;;;;;15.61;72.74;101093.59;10363141;28;20111;-55
2021/09/01 02:04:22;;;;;;;9.32;7.22;;;;;;;15.60;72.61;101087.38;10343969;28;20616;-55
2021/09/01 02:09:24;;;;;;;7.85;7.05;;;;;;;15.55;72.70;101090.47;10320676;28;1085444;-55
2021/09/01 02:14:25;;;;;;;7.20;6.50;;;;;;;15.58;73.06;101080.44;10358051;28;20523;-54
2021/09/01 02:19:27;;;;;;;7.80;6.47;;;;;;;15.57;72.93;101084.97;10366442;28;20069;-56
2021/09/01 02:24:28;;;;;;;7.50;5.72;;;;;;;15.50;73.17;101060.50;10374097;28;20149;-54
2021/09/01 02:29:29;;;;;;;7.00;6.40;;;;;;;15.61;73.10;101072.13;10372076;28;21067;-55
2021/09/01 02:34:31;;;;;;;6.40;5.80;;;;;;;15.61;73.28;101080.16;10362288;28;20049;-55
2021/09/01 02:39:33;;;;;;;6.32;5.72;;;;;;;15.54;73.00;101080.72;10375312;28;20549;-55
2021/09/01 02:44:35;;;;;;;7.45;5.95;;;;;;;15.54;73.66;101083.41;10372408;28;20125;-55
2021/09/01 02:49:36;;;;;;;8.73;6.32;;;;;;;15.54;73.56;101091.44;10374386;28;20606;-55
2021/09/01 02:54:37;;;;;;;7.20;6.47;;;;;;;15.49;73.99;101085.66;10376354;28;20046;-54
2021/09/01 02:59:39;;;;;;;8.80;6.40;;;;;;;15.47;74.46;101097.50;10371141;28;20165;-56
2021/09/01 03:04:40;;;;;;;6.32;5.70;;;;;;;15.49;74.12;101101.75;10348568;28;20053;-55
2021/09/01 03:09:41;;;;;;;7.88;5.93;;;;;;;15.55;73.91;101108.38;10349598;28;20053;-55
2021/09/01 03:14:43;;;;;;;6.28;5.68;;;;;;;15.53;74.21;101103.16;10381430;28;20038;-56
2021/09/01 03:19:44;;;;;;;6.57;5.85;;;;;;;15.39;74.50;101084.75;10373136;28;20104;-54
2021/09/01 03:24:46;;;;;;;6.55;5.95;;;;;;;15.41;74.21;101087.31;10387089;28;20050;-54
2021/09/01 03:29:48;;;;;;;18.58;6.40;;;;;;;15.42;74.36;101089.84;10379794;28;20046;-55
2021/09/01 03:34:50;;;;;;;7.32;5.90;;;;;;;15.47;74.85;101101.03;10359289;28;20057;-56
2021/09/01 03:39:51;;;;;;;7.32;6.53;;;;;;;15.36;74.68;101093.91;10364299;28;20100;-56
2021/09/01 03:44:52;;;;;;;7.45;6.50;;;;;;;15.42;75.06;101105.09;10367521;28;20448;-56
2021/09/01 03:49:54;;;;;;;7.13;6.25;;;;;;;15.39;74.99;101114.28;10371858;28;20129;-54
2021/09/01 03:54:55;;;;;;;10.57;6.55;;;;;;;15.34;75.43;101112.00;10371394;28;20134;-56
2021/09/01 03:59:59;;;;;;;7.10;6.38;;;;;;;15.33;75.41;101107.59;10372064;28;20104;-56
2021/09/01 04:05:00;;;;;;;6.73;6.03;;;;;;;15.34;75.58;101113.81;10350736;28;20065;-53
2021/09/01 04:10:02;;;;;;;7.55;6.63;;;;;;;15.36;75.58;101119.91;10355779;28;20053;-55
2021/09/01 04:15:05;;;;;;;7.43;6.35;;;;;;;15.38;76.15;101123.28;10360525;28;20136;-54
2021/09/01 04:20:08;;;;;;;10.10;6.45;;;;;;;15.37;75.70;101124.25;10365241;28;20041;-55
2021/09/01 04:25:10;;;;;;;8.18;7.25;;;;;;;15.35;76.05;101127.09;10370370;28;20042;-55
2021/09/01 04:30:11;;;;;;;8.15;6.55;;;;;;;15.32;75.89;101130.03;10368141;28;20133;-54
2021/09/01 04:35:13;;;;;;;8.02;6.85;;;;;;;15.23;76.25;101121.94;10365543;28;20140;-55
2021/09/01 04:40:14;;;;;;;7.68;6.22;;;;;;;15.25;76.36;101133.38;10369204;28;20068;-55
2021/09/01 04:45:15;;;;;;;10.00;7.18;;;;;;;15.23;76.29;101130.84;10382001;28;20042;-55
2021/09/01 04:50:17;;;;;;;9.27;6.63;;;;;;;15.24;76.36;101132.53;10368538;28;20073;-60
2021/09/01 04:55:18;;;;;;;8.23;7.30;;;;;;;15.27;76.26;101139.47;10368273;28;20452;-55
2021/09/01 05:00:21;;;;;;;8.27;6.55;;;;;;;15.31;76.50;101143.56;10368890;28;20081;-55
2021/09/01 05:05:22;;;;;;;9.45;6.80;;;;;;;15.34;76.74;101146.00;10359657;22;20041;-62
2021/09/01 05:10:24;;;;;;;7.75;6.55;;;;;;;15.32;76.43;101148.81;10354405;28;20112;-62
2021/09/01 05:15:25;;;;;;;8.25;6.70;;;;;;;15.30;76.49;101141.91;10340301;28;20049;-62
2021/09/01 05:20:26;;;;;;;8.13;6.20;;;;;;;15.30;76.64;101156.16;10345744;28;20062;-62
2021/09/01 05:25:30;;;;;;;8.98;7.78;;;;;;;15.34;77.10;101170.13;10343371;28;20364;-61
2021/09/01 05:30:32;;;;;;;8.90;6.60;;;;;;;15.38;76.70;101158.16;10344203;28;20042;-61
2021/09/01 05:35:34;;;;;;;10.57;6.97;;;;;;;15.45;76.77;101170.06;10342524;28;20068;-61
2021/09/01 05:40:38;;;;;;;10.15;6.85;;;;;;;15.51;76.49;101176.75;10349070;28;20513;-61
2021/09/01 05:45:40;;;;;;;;;;;;;;;15.50;76.93;101167.81;10350797;28;20061;-61
2021/09/01 05:50:42;;;;;;;8.02;6.18;;;;;;;15.65;76.63;101170.16;10339623;28;19931;-62
2021/09/01 05:55:47;;;;;;;10.02;6.78;;;;;;;15.77;76.43;101174.44;10343122;28;20053;-61
2021/09/01 06:00:54;;;;;;;8.07;6.55;;;;;;;15.79;76.26;101175.19;10334671;28;20049;-61
2021/09/01 06:05:58;;;;;;;8.32;6.78;;;;;;;16.02;75.34;101177.69;10342273;28;20081;-61
2021/09/01 06:11:07;;;;;;;7.00;6.10;;;;;;;16.07;75.26;101176.28;10339676;28;20054;-64
2021/09/01 06:16:08;;;;;;;9.95;6.35;;;;;;;16.14;74.61;101175.72;10337645;28;20493;-61
2021/09/01 06:21:10;;;;;;;7.18;5.93;;;;;;;16.44;73.86;101189.09;10343380;28;20269;-62
2021/09/01 06:26:11;;;;;;;10.50;6.07;;;;;;;16.72;73.12;101185.72;10341624;28;20483;-62
2021/09/01 06:31:16;;;;;;;8.85;6.88;;;;;;;16.87;71.72;101189.72;10336840;28;20053;-61
2021/09/01 06:36:17;;;;;;;9.88;6.78;;;;;;;16.96;72.07;101188.88;10340901;28;20046;-61
2021/09/01 06:41:19;;;;;;;11.90;6.97;;;;;;;17.20;71.15;101184.88;10336849;28;20124;-61
2021/09/01 06:46:20;;;;;;;8.70;6.65;;;;;;;17.31;70.78;101187.41;10340034;28;22257;-60
2021/09/01 06:51:22;;;;;;;8.75;6.60;;;;;;;17.40;70.49;101196.47;10342150;28;20355;-62
2021/09/01 06:56:23;;;;;;;10.27;6.63;;;;;;;17.40;71.32;101195.59;10340522;28;20228;-61
2021/09/01 07:01:30;;;;;;;8.43;6.55;;;;;;;17.59;70.45;101192.84;10343096;28;20099;-61
2021/09/01 07:06:32;;;;;;;9.27;6.00;;;;;;;17.62;71.18;101194.41;10338792;28;20065;-62
2021/09/01 07:11:34;;;;;;;8.10;6.35;;;;;;;17.91;70.84;101194.34;10343337;28;20556;-62
2021/09/01 07:16:35;;;;;;;9.93;7.13;;;;;;;18.20;69.41;101199.56;10348583;28;20051;-62
2021/09/01 07:21:36;;;;;;;9.05;5.80;;;;;;;18.06;69.43;101202.78;10344909;28;20069;-62
2021/09/01 07:26:38;;;;;;;14.60;6.85;;;;;;;18.28;69.47;101201.50;10341154;28;20126;-61
2021/09/01 07:31:39;;;;;;;11.25;7.05;;;;;;;18.34;68.41;101211.66;10342189;28;20074;-61
2021/09/01 07:36:41;;;;;;;8.75;6.07;;;;;;;18.41;68.28;101211.09;10340603;28;20151;-62
2021/09/01 07:41:42;;;;;;;11.48;6.50;;;;;;;18.51;67.35;101222.63;10342832;28;20107;-62
2021/09/01 07:46:45;;;;;;;10.32;6.95;;;;;;;18.51;67.50;101222.63;10346272;28;20073;-62
2021/09/01 07:51:47;;;;;;;6.60;5.82;;;;;;;18.85;66.68;101230.06;10357015;28;20060;-62
2021/09/01 07:56:49;;;;;;;7.43;6.53;;;;;;;19.09;65.60;101226.78;10339345;28;20073;-61
2021/09/01 08:01:50;;;;;;;7.80;5.88;;;;;;;19.51;63.53;101219.84;10344791;28;20045;-62
2021/09/01 08:06:52;;;;;;;9.05;7.00;;;;;;;19.83;62.49;101245.38;10346198;28;20095;-63
2021/09/01 08:11:54;;;;;;;8.10;7.18;;;;;;;19.51;61.54;101252.25;10341823;28;20046;-63
2021/09/01 08:16:55;;;;;;;9.45;6.03;;;;;;;19.75;61.13;101255.09;10329287;28;20046;-66
2021/09/01 08:21:56;;;;;;;10.32;5.80;;;;;;;19.95;60.80;101260.31;10335860;28;20050;-63
2021/09/01 08:26:58;;;;;;;10.30;5.95;;;;;;;20.34;59.81;101265.22;10342216;28;20088;-63
2021/09/01 08:38:21;;;;;;;7.35;5.35;;;;;;;20.25;59.66;101275.16;10335058;28;20475;-63
2021/09/01 08:43:22;;;;;;;9.90;5.60;;;;;;;21.10;57.24;101271.50;10344707;28;20546;-61
2021/09/01 08:48:24;;;;;;;6.38;4.72;;;;;;;21.30;55.89;101271.19;10355604;28;20129;-62
2021/09/01 08:53:25;;;;;;;8.35;4.65;;;;;;;21.44;56.53;101275.94;10345506;28;20073;-62
2021/09/01 08:58:55;;;;;;;9.48;5.40;;;;;;;21.74;55.22;101273.56;10335351;28;20085;-62
2021/09/01 09:03:56;;;;;;;10.02;5.68;;;;;;;22.20;53.21;101281.03;10342464;28;20452;-61
2021/09/01 09:09:09;;;;;;;9.98;5.32;;;;;;;22.95;51.32;101283.25;10353206;28;20720;-62
2021/09/01 09:14:20;;;;;;;4.87;4.07;;;;;;;23.29;50.68;101273.84;10337626;28;20049;-61
2021/09/01 09:19:45;;;;;;;8.95;5.60;;;;;;;23.20;49.59;101280.38;10356673;28;20714;-62
2021/09/01 09:25:09;;;;;;;6.63;5.30;;;;;;;23.15;49.39;101282.78;10332101;28;20050;-61
2021/09/01 09:30:39;;;;;;;7.80;5.38;;;;;;;23.16;49.69;101284.47;10358039;28;20049;-62
2021/09/01 09:35:59;;;;;;;11.73;6.80;;;;;;;22.42;51.11;101283.00;10332780;28;20331;-62
2021/09/01 09:41:03;;;;;;;6.97;5.40;;;;;;;22.66;50.74;101288.50;10337563;28;20103;-62
2021/09/01 09:46:10;;;;;;;8.15;5.55;;;;;;;22.68;50.16;101287.28;10338703;28;20103;-62
2021/09/01 09:51:34;;;;;;;9.10;6.22;;;;;;;22.62;50.86;101289.88;10339136;28;20466;-63
2021/09/01 09:56:36;;;;;;;5.60;4.88;;;;;;;23.86;47.07;101289.81;10342282;28;20050;-63
2021/09/01 10:01:38;;;;;;;7.35;5.20;;;;;;;24.12;46.44;101279.31;10342961;28;20046;-62
2021/09/01 10:06:41;;;;;;;7.22;5.22;;;;;;;24.26;46.57;101274.03;10335472;28;20050;-63
2021/09/01 10:11:46;;;;;;;8.38;5.32;;;;;;;24.74;44.82;101271.75;10338408;28;20046;-62
2021/09/01 10:17:09;;;;;;;7.53;4.53;;;;;;;25.58;42.66;101268.38;10338132;28;20072;-62
2021/09/01 10:22:11;;;;;;;5.97;4.50;;;;;;;29.60;35.30;101262.63;10341421;28;20447;-62
2021/09/01 10:27:16;;;;;;;7.20;4.27;;;;;;;32.73;30.55;101253.25;10341397;28;20070;-62
2021/09/01 10:32:24;;;;;;;5.63;4.25;;;;;;;32.75;28.38;101253.00;10341871;28;20163;-62
2021/09/01 10:37:53;;;;;;;6.75;4.80;;;;;;;30.06;33.22;101247.59;10335362;28;20112;-62
2021/09/01 10:42:56;;;;;;;7.82;5.28;;;;;;;29.01;34.90;101240.97;10333195;28;20209;-62
2021/09/01 10:48:09;;;;;;;7.38;4.30;;;;;;;30.48;32.58;101247.72;10348921;28;20748;-64
2021/09/01 10:53:27;;;;;;;7.40;4.38;;;;;;;35.48;26.30;101237.97;10354232;28;20491;-67
2021/09/01 10:58:42;;;;;;;6.57;4.22;;;;;;;38.31;21.84;101234.59;10342969;28;20046;-61
2021/09/01 11:03:51;;;;;;;5.55;3.75;;;;;;;38.41;21.21;101223.41;10339877;28;20623;-62
2021/09/01 11:08:58;;;;;;;6.40;3.47;;;;;;;36.52;23.79;101225.44;10342705;28;20096;-61
2021/09/01 11:13:59;;;;;;;4.95;4.13;;;;;;;35.76;24.26;101216.53;10345584;28;20050;-62
2021/09/01 11:19:05;;;;;;;6.63;4.13;;;;;;;39.48;20.23;101209.72;10347354;28;20061;-63
2021/09/01 11:24:10;;;;;;;4.38;3.97;;;;;;;38.66;20.00;101202.97;10360394;28;20580;-61
2021/09/01 11:29:13;;;;;;;6.75;4.00;;;;;;;34.76;25.63;101204.19;10351387;28;20066;-62
2021/09/01 11:34:14;;;;;;;4.53;3.78;;;;;;;33.38;26.90;101201.41;10340615;28;20141;-63
2021/09/01 11:39:16;;;;;;;6.75;4.05;;;;;;;30.36;30.75;101204.78;10351875;28;20081;-62
2021/09/01 11:44:18;;;;;;;9.02;4.15;;;;;;;31.26;30.10;101212.09;10350139;28;20104;-62
2021/09/01 11:49:20;;;;;;;5.65;3.83;;;;;;;32.11;29.29;101209.06;10349227;28;20103;-62
2021/09/01 11:54:21;;;;;;;;;;;;;;;29.95;32.23;101218.16;10349599;28;20925;-62
2021/09/01 11:59:26;;;;;;;5.03;4.38;;;;;;;28.28;35.77;101214.00;10349883;28;20267;-62
2021/09/01 12:04:27;;;;;;;7.28;4.60;;;;;;;27.21;37.13;101211.47;10348750;28;20045;-61
2021/09/01 12:09:52;;;;;;;6.95;4.55;;;;;;;26.35;38.14;101219.28;10336531;28;20056;-62
2021/09/01 12:15:05;;;;;;;5.63;3.83;;;;;;;26.05;38.78;101216.03;10364323;28;20077;-62
2021/09/01 12:20:13;;;;;;;6.28;4.05;;;;;;;28.30;34.64;101211.88;10342789;28;20045;-62
2021/09/01 12:25:16;;;;;;;5.60;3.85;;;;;;;34.49;25.10;101204.22;10350176;28;20049;-62
2021/09/01 12:30:17;;;;;;;8.73;3.65;;;;;;;37.32;22.06;101189.69;10346249;28;20630;-62
2021/09/01 12:35:19;;;;;;;5.13;3.00;;;;;;;35.75;23.02;101182.47;10346399;28;20151;-62
2021/09/01 12:40:26;;;;;;;6.43;3.92;;;;;;;33.78;25.74;101178.25;10345599;28;20093;-62
2021/09/01 12:45:28;;;;;;;4.75;2.67;;;;;;;32.83;27.29;101188.38;10346560;28;20061;-62
2021/09/01 12:50:34;;;;;;;6.93;3.17;;;;;;;31.79;28.25;101184.69;10348305;28;20572;-62
2021/09/01 12:55:41;;;;;;;5.30;3.10;;;;;;;31.39;28.48;101180.75;10346935;28;20042;-62
2021/09/01 13:00:43;;;;;;;3.83;2.95;;;;;;;30.72;30.65;101172.81;10344948;28;20050;-62
2021/09/01 13:05:46;;;;;;;6.25;3.22;;;;;;;29.22;32.10;101163.00;10347981;28;20052;-62
2021/09/01 13:10:47;;;;;;;6.63;3.63;;;;;;;28.53;33.35;101175.72;10342409;28;20049;-61
2021/09/01 13:15:49;;;;;;;3.45;3.00;;;;;;;27.92;33.63;101174.31;10339892;28;20054;-62
2021/09/01 13:20:54;;;;;;;4.72;3.38;;;;;;;27.64;34.59;101157.19;10340735;28;20118;-61
2021/09/01 13:25:56;;;;;;;5.40;3.58;;;;;;;27.59;35.11;101164.34;10341035;28;20121;-63
2021/09/01 13:30:57;;;;;;;6.88;3.53;;;;;;;27.94;34.92;101161.25;10342640;28;20591;-63
2021/09/01 13:35:59;;;;;;;4.23;3.43;;;;;;;27.34;34.64;101159.56;10334400;28;20046;-60
2021/09/01 13:41:00;;;;;;;5.50;3.83;;;;;;;27.13;34.52;101155.97;10342711;28;20054;-62
2021/09/01 13:46:02;;;;;;;4.43;2.73;;;;;;;26.81;35.06;101152.19;10338162;28;20092;-62
2021/09/01 13:51:03;;;;;;;4.47;3.30;;;;;;;26.04;36.81;101151.59;10343344;28;20065;-63
2021/09/01 13:56:05;;;;;;;6.88;3.25;;;;;;;26.45;36.16;101150.66;10343703;28;21085;-65
2021/09/01 14:01:09;;;;;;;6.50;3.30;;;;;;;25.97;36.87;101140.59;10340513;28;20134;-65
2021/09/01 14:06:10;;;;;;;4.53;3.30;;;;;;;26.18;37.27;101138.84;10341976;28;20045;-64
2021/09/01 14:11:12;;;;;;;5.50;3.17;;;;;;;26.33;35.68;101134.03;10340350;28;20050;-61
2021/09/01 14:16:15;;;;;;;6.70;3.95;;;;;;;25.98;37.37;101128.66;10346147;28;20122;-63
2021/09/01 14:21:18;;;;;;;3.15;2.85;;;;;;;25.42;38.19;101126.94;10353622;28;20056;-62
2021/09/01 14:26:20;;;;;;;6.70;3.33;;;;;;;25.01;39.25;101124.94;10351986;28;20061;-63
2021/09/01 14:31:22;;;;;;;5.25;4.03;;;;;;;24.86;39.89;101116.88;10347613;28;20178;-65
2021/09/01 14:36:23;;;;;;;6.05;4.35;;;;;;;24.54;41.08;101124.50;10352742;28;20069;-64
2021/09/01 14:41:25;;;;;;;7.50;4.82;;;;;;;24.16;41.46;101117.44;10353118;28;20652;-63
2021/09/01 14:46:26;;;;;;;4.45;3.90;;;;;;;23.57;42.12;101129.25;10351766;28;20069;-69
2021/09/01 14:51:28;;;;;;;5.20;3.72;;;;;;;23.69;42.45;101120.59;10348093;28;20047;-63
2021/09/01 14:56:29;;;;;;;4.50;4.10;;;;;;;23.77;42.68;101113.19;10351177;28;20054;-63
2021/09/01 15:01:31;;;;;;;5.60;3.35;;;;;;;23.75;42.39;101117.13;10347454;28;20050;-65
2021/09/01 15:06:33;;;;;;;5.33;3.30;;;;;;;23.56;42.27;101111.25;10349887;28;20498;-62
2021/09/01 15:11:35;;;;;;;4.57;2.90;;;;;;;23.43;42.67;101105.63;10350838;28;20107;-60
2021/09/01 15:16:36;;;;;;;4.32;3.33;;;;;;;23.33;42.24;101091.47;10344115;28;20077;-64
2021/09/01 15:21:37;;;;;;;5.28;3.25;;;;;;;23.16;42.14;101090.81;10351371;28;20070;-62
2021/09/01 15:26:39;;;;;;;5.20;3.40;;;;;;;22.98;42.38;101086.53;10345812;28;20053;-63
2021/09/01 15:31:40;;;;;;;5.20;3.15;;;;;;;23.00;42.22;101089.06;10345668;28;20100;-63
2021/09/01 15:36:42;;;;;;;4.57;3.63;;;;;;;23.03;42.77;101088.69;10334985;28;20074;-63
2021/09/01 15:41:45;;;;;;;5.78;3.75;;;;;;;22.99;43.09;101081.97;10361737;28;20046;-62
2021/09/01 15:46:53;;;;;;;6.15;3.58;;;;;;;23.01;43.47;101085.34;10349431;28;20129;-63
2021/09/01 15:51:56;;;;;;;7.45;3.80;;;;;;;22.81;43.48;101083.16;10354389;28;20564;-62
2021/09/01 15:56:59;;;;;;;4.57;3.58;;;;;;;22.85;43.61;101070.91;10342158;28;20101;-63
2021/09/01 16:02:04;;;;;;;6.53;3.63;;;;;;;22.73;43.13;101066.97;10350921;28;20108;-65
2021/09/01 16:07:06;;;;;;;6.32;3.63;;;;;;;22.46;44.44;101073.78;10358205;28;20758;-64
2021/09/01 16:12:09;;;;;;;4.47;3.63;;;;;;;22.55;44.87;101065.41;10343461;28;20160;-69
2021/09/01 16:17:26;;;;;;;5.15;3.70;;;;;;;22.54;44.77;101068.31;10361820;28;20129;-62
2021/09/01 16:22:41;;;;;;;4.88;3.25;;;;;;;22.42;44.97;101065.19;10338639;28;20078;-61
2021/09/01 16:27:44;;;;;;;5.65;3.80;;;;;;;22.37;45.16;101062.19;10345609;28;20437;-63
2021/09/01 16:32:46;;;;;;;5.50;3.72;;;;;;;22.27;45.07;101048.00;10332858;28;20125;-63
2021/09/01 16:37:56;;;;;;;5.35;3.60;;;;;;;22.27;45.32;101058.84;10344920;28;20042;-62
2021/09/01 16:42:58;;;;;;;4.40;3.20;;;;;;;22.05;45.74;101059.50;10351289;28;20081;-63
2021/09/01 16:48:00;;;;;;;4.73;3.10;;;;;;;21.98;45.84;101057.66;10345274;28;20076;-62
2021/09/01 16:53:05;;;;;;;7.18;3.35;;;;;;;21.85;46.29;101072.63;10346090;28;20176;-63
2021/09/01 16:58:13;;;;;;;4.63;3.47;;;;;;;21.57;46.43;101072.25;10342912;28;20444;-63
2021/09/01 17:03:27;;;;;;;5.97;3.90;;;;;;;21.61;47.67;101078.19;10354022;28;20049;-63
2021/09/01 17:08:34;;;;;;;5.07;4.57;;;;;;;21.57;47.55;101071.44;10341028;28;20086;-66
2021/09/01 17:13:37;;;;;;;6.28;3.53;;;;;;;21.41;47.48;101061.47;10359986;28;20133;-62
2021/09/01 17:18:39;;;;;;;4.78;3.83;;;;;;;21.31;47.64;101062.53;10343417;28;20426;-63
2021/09/01 17:23:41;;;;;;;4.35;3.00;;;;;;;21.25;48.30;101062.38;10344488;28;20061;-63
2021/09/01 17:28:57;;;;;;;5.60;3.60;;;;;;;21.15;48.66;101068.84;10351691;28;20692;-62
2021/09/01 17:34:03;;;;;;;6.05;4.15;;;;;;;21.04;49.40;101074.59;10350404;28;20061;-63
2021/09/01 17:39:05;;;;;;;6.13;4.15;;;;;;;20.98;49.71;101078.84;10342352;28;20046;-62
2021/09/01 17:44:07;;;;;;;7.97;5.63;;;;;;;20.81;49.88;101071.78;10351211;28;20093;-62
2021/09/01 17:49:09;;;;;;;4.55;4.10;;;;;;;20.76;50.07;101085.81;10342388;28;20619;-62
2021/09/01 17:54:11;;;;;;;4.18;3.65;;;;;;;20.67;50.34;101089.53;10336062;28;20175;-62
2021/09/01 17:59:12;;;;;;;4.70;3.28;;;;;;;20.55;50.31;101082.75;10341647;28;20066;-63
2021/09/01 18:04:14;;;;;;;8.60;3.65;;;;;;;20.39;51.41;101079.03;10331447;28;20104;-63
2021/09/01 18:09:15;;;;;;;7.05;3.58;;;;;;;20.33;51.67;101082.41;10334163;28;20503;-61
2021/09/01 18:14:38;;;;;;;6.40;4.18;;;;;;;20.26;52.12;101094.88;10341671;28;20137;-63
2021/09/01 18:19:39;;;;;;;4.43;3.67;;;;;;;20.13;52.07;101095.34;10339322;28;20038;-63
2021/09/01 18:24:41;;;;;;;5.28;4.22;;;;;;;20.02;52.81;101104.63;10342849;28;20045;-62
2021/09/01 18:29:44;;;;;;;4.82;4.13;;;;;;;19.93;53.36;101108.31;10322498;28;20050;-65
2021/09/01 18:34:46;;;;;;;5.07;4.18;;;;;;;19.87;53.88;101107.13;10342242;28;20042;-63
2021/09/01 18:39:47;;;;;;;6.40;3.88;;;;;;;19.75;53.98;101106.53;10358055;28;20104;-62
2021/09/01 18:44:49;;;;;;;5.35;3.95;;;;;;;19.71;54.38;101118.69;10355151;28;20074;-61
2021/09/01 18:49:52;;;;;;;7.47;4.85;;;;;;;19.56;54.25;101121.16;10342021;28;20066;-63
2021/09/01 18:54:54;;;;;;;7.55;4.45;;;;;;;19.54;54.65;101133.13;10332921;28;20154;-62
2021/09/01 18:59:58;;;;;;;5.40;3.78;;;;;;;19.50;54.30;101137.13;10333897;28;20084;-62
2021/09/01 19:05:05;;;;;;;6.88;3.95;;;;;;;19.31;55.19;101136.38;10330297;28;20411;-61
2021/09/01 19:10:12;;;;;;;5.00;4.38;;;;;;;19.26;54.95;101141.41;10355505;28;20056;-63
2021/09/01 19:15:15;;;;;;;7.65;4.20;;;;;;;19.14;54.97;101137.25;10352878;28;20046;-61
2021/09/01 19:20:17;;;;;;;5.55;3.85;;;;;;;19.16;55.28;101140.66;10333839;28;20341;-61
2021/09/01 19:25:18;;;;;;;5.88;4.10;;;;;;;19.05;55.81;101139.91;10338569;28;20096;-63
2021/09/01 19:30:20;;;;;;;7.35;4.50;;;;;;;19.01;55.79;101152.00;10342522;28;20089;-62
2021/09/01 19:35:23;;;;;;;4.65;4.25;;;;;;;18.96;56.23;101154.34;10340397;28;20389;-63
2021/09/01 19:40:25;;;;;;;10.43;4.93;;;;;;;18.87;55.92;101157.97;10362427;28;20108;-61
2021/09/01 19:45:26;;;;;;;4.80;4.35;;;;;;;18.75;56.66;101160.03;10345807;28;20046;-61
2021/09/01 19:50:28;;;;;;;5.15;4.07;;;;;;;18.66;57.05;101151.03;10343541;28;20046;-62
2021/09/01 19:55:30;;;;;;;5.32;4.30;;;;;;;18.59;57.42;101155.34;10342693;28;20471;-61
2021/09/01 20:00:33;;;;;;;6.38;4.60;;;;;;;18.54;57.56;101155.81;10349468;28;20574;-62
2021/09/01 20:05:35;;;;;;;6.50;4.70;;;;;;;18.53;58.20;101161.34;10362667;28;20046;-62
2021/09/01 20:10:37;;;;;;;4.97;4.47;;;;;;;18.48;58.36;101163.63;10343537;28;20053;-62
2021/09/01 20:15:39;;;;;;;5.90;4.22;;;;;;;18.36;58.79;101166.56;10342553;28;20245;-63
2021/09/01 20:20:40;;;;;;;6.70;4.85;;;;;;;18.28;58.96;101171.84;10340565;28;20129;-63
2021/09/01 20:25:43;;;;;;;6.13;5.25;;;;;;;18.21;59.33;101168.09;10342660;28;20053;-63
2021/09/01 20:30:45;;;;;;;6.32;5.43;;;;;;;18.18;59.55;101176.47;10341607;28;20103;-63
2021/09/01 20:35:47;;;;;;;6.57;5.13;;;;;;;18.11;60.49;101188.84;10337637;28;20049;-63
2021/09/01 20:40:49;;;;;;;5.78;5.25;;;;;;;18.05;60.30;101181.38;10338620;28;20077;-63
2021/09/01 20:45:58;;;;;;;5.30;4.00;;;;;;;18.02;60.50;101191.44;10328750;28;20108;-63
2021/09/01 20:51:04;;;;;;;6.10;4.93;;;;;;;17.95;60.70;101186.78;10360197;28;20108;-63
2021/09/01 20:56:05;;;;;;;6.18;5.03;;;;;;;17.90;60.99;101179.16;10345041;28;20587;-64
2021/09/01 21:01:08;;;;;;;6.78;4.55;;;;;;;17.83;61.19;101180.72;10342460;28;20105;-61
2021/09/01 21:06:09;;;;;;;7.93;4.82;;;;;;;17.76;61.30;101175.09;10340556;28;20046;-63
2021/09/01 21:11:11;;;;;;;6.25;5.15;;;;;;;17.70;61.67;101172.13;10346808;28;20046;-61
2021/09/01 21:16:15;;;;;;;7.97;6.00;;;;;;;17.63;61.87;101164.66;10346025;28;20062;-63
2021/09/01 21:21:16;;;;;;;;;;;;;;;17.62;61.86;101170.19;10341239;28;20129;-63
2021/09/01 21:26:22;;;;;;;6.45;5.20;;;;;;;17.56;62.19;101178.84;10335977;28;20024;-63
2021/09/01 21:31:30;;;;;;;6.45;4.75;;;;;;;17.48;62.10;101182.28;10338740;28;20058;-63
2021/09/01 21:36:32;;;;;;;6.53;4.30;;;;;;;17.30;62.26;101180.31;10338231;28;20047;-62
2021/09/01 21:41:33;;;;;;;8.05;5.85;;;;;;;17.30;62.42;101185.69;10345642;28;20060;-62
2021/09/01 21:46:36;;;;;;;6.85;4.90;;;;;;;17.28;62.66;101190.38;10340907;28;20053;-62
2021/09/01 21:51:38;;;;;;;5.63;4.97;;;;;;;17.23;62.58;101183.75;10344156;28;20061;-62
2021/09/01 21:56:39;;;;;;;8.77;5.00;;;;;;;17.18;63.12;101188.72;10338339;28;20133;-63
2021/09/01 22:01:45;;;;;;;8.05;5.22;;;;;;;17.06;63.32;101190.72;10340990;28;20045;-62
2021/09/01 22:06:47;;;;;;;8.75;5.07;;;;;;;17.02;63.37;101190.13;10338424;28;20054;-62
2021/09/01 22:11:48;;;;;;;8.15;6.13;;;;;;;16.99;63.52;101194.94;10348543;28;20050;-63
2021/09/01 22:16:50;;;;;;;7.47;5.22;;;;;;;16.97;63.28;101189.72;10346009;28;20144;-63
2021/09/01 22:21:51;;;;;;;6.10;5.00;;;;;;;16.90;63.67;101194.84;10343696;28;20050;-62
2021/09/01 22:26:53;;;;;;;8.40;4.88;;;;;;;16.84;63.29;101198.03;10337167;28;20097;-62
2021/09/01 22:31:54;;;;;;;6.10;4.85;;;;;;;16.70;63.79;101193.09;10344861;28;20614;-62
2021/09/01 22:36:56;;;;;;;6.60;5.07;;;;;;;16.74;63.17;101183.75;10339175;28;20395;-63
2021/09/01 22:41:57;;;;;;;6.10;5.50;;;;;;;16.49;63.46;101186.00;10345360;28;20244;-62
2021/09/01 22:47:00;;;;;;;7.60;4.88;;;;;;;16.53;64.12;101191.91;10366163;28;20468;-62
2021/09/01 22:52:01;;;;;;;5.22;4.55;;;;;;;16.63;63.16;101176.66;10349483;28;20115;-62
2021/09/01 22:57:04;;;;;;;7.85;4.97;;;;;;;16.64;63.36;101182.91;10338465;28;20073;-62
2021/09/01 23:02:05;;;;;;;6.32;4.68;;;;;;;16.66;63.32;101187.13;10350705;28;20076;-61
2021/09/01 23:07:08;;;;;;;9.38;5.15;;;;;;;16.62;63.14;101185.72;10349308;22;20064;-56
2021/09/01 23:12:09;;;;;;;5.15;4.60;;;;;;;16.57;62.84;101178.09;10345807;28;20515;-55
2021/09/01 23:17:11;;;;;;;8.73;5.57;;;;;;;16.57;63.33;101194.22;10362564;28;20127;-56
2021/09/01 23:22:12;;;;;;;9.02;5.07;;;;;;;16.54;63.41;101189.13;10338928;28;20104;-55